sensor_id;sensor_type;location;lat;lon;timestamp;temperature;humidity
4934;DHT22;2482;49.154;8.254;2023-08-24T00:02:02;19.90;99.90
4934;DHT22;2482;49.154;8.254;2023-08-24T00:04:29;20.10;99.90
4934;DHT22;2482;49.154;8.254;2023-08-24T00:06:56;20.30;99.90
4934;DHT22;2482;49.154;8.254;2023-08-24T00:09:23;20.10;99.90
4934;DHT22;2482;49.154;8.254;2023-08-24T00:11:51;20.00;99.90
4934;DHT22;2482;49.154;8.254;2023-08-24T00:14:19;19.90;99.90
4934;DHT22;2482;49.154;8.254;2023-08-24T00:16:46;19.80;99.90
4934;DHT22;2482;49.154;8.254;2023-08-24T00:19:13;19.90;99.90
4934;DHT22;2482;49.154;8.254;2023-08-24T00:21:40;19.90;99.90
4934;DHT22;2482;49.154;8.254;2023-08-24T00:24:07;19.90;99.90
4934;DHT22;2482;49.154;8.254;2023-08-24T00:26:33;20.00;99.90
4934;DHT22;2482;49.154;8.254;2023-08-24T00:29:01;19.90;99.90
4934;DHT22;2482;49.154;8.254;2023-08-24T00:31:28;19.90;99.90
4934;DHT22;2482;49.154;8.254;2023-08-24T00:33:55;19.70;99.90
4934;DHT22;2482;49.154;8.254;2023-08-24T00:36:22;19.50;99.90
4934;DHT22;2482;49.154;8.254;2023-08-24T00:38:50;19.40;99.90
4934;DHT22;2482;49.154;8.254;2023-08-24T00:41:18;19.30;99.90
4934;DHT22;2482;49.154;8.254;2023-08-24T00:43:45;19.30;99.90
4934;DHT22;2482;49.154;8.254;2023-08-24T00:46:13;19.20;99.90
4934;DHT22;2482;49.154;8.254;2023-08-24T00:48:40;19.10;99.90
4934;DHT22;2482;49.154;8.254;2023-08-24T00:51:07;19.10;99.90
4934;DHT22;2482;49.154;8.254;2023-08-24T00:53:35;19.10;99.90
4934;DHT22;2482;49.154;8.254;2023-08-24T00:56:03;19.00;99.90
4934;DHT22;2482;49.154;8.254;2023-08-24T00:58:31;19.10;99.90
4934;DHT22;2482;49.154;8.254;2023-08-24T01:00:59;19.00;99.90
4934;DHT22;2482;49.154;8.254;2023-08-24T01:03:26;19.20;99.90
4934;DHT22;2482;49.154;8.254;2023-08-24T01:05:54;19.30;99.90
4934;DHT22;2482;49.154;8.254;2023-08-24T01:08:21;19.30;99.90
4934;DHT22;2482;49.154;8.254;2023-08-24T01:11:32;19.20;99.90
4934;DHT22;2482;49.154;8.254;2023-08-24T01:14:12;19.10;99.90
4934;DHT22;2482;49.154;8.254;2023-08-24T01:16:45;19.10;99.90
4934;DHT22;2482;49.154;8.254;2023-08-24T01:19:41;19.20;99.90
4934;DHT22;2482;49.154;8.254;2023-08-24T01:27:43;18.80;99.90
4934;DHT22;2482;49.154;8.254;2023-08-24T01:30:11;19.00;99.90
4934;DHT22;2482;49.154;8.254;2023-08-24T01:32:38;19.10;99.90
4934;DHT22;2482;49.154;8.254;2023-08-24T01:35:08;19.10;99.90
4934;DHT22;2482;49.154;8.254;2023-08-24T01:37:36;19.20;99.90
4934;DHT22;2482;49.154;8.254;2023-08-24T01:40:32;19.20;99.90
4934;DHT22;2482;49.154;8.254;2023-08-24T01:43:07;19.40;99.90
4934;DHT22;2482;49.154;8.254;2023-08-24T01:45:37;19.40;99.90
4934;DHT22;2482;49.154;8.254;2023-08-24T01:48:05;19.50;99.90
4934;DHT22;2482;49.154;8.254;2023-08-24T01:50:32;19.60;99.90
4934;DHT22;2482;49.154;8.254;2023-08-24T01:53:00;19.60;99.90
4934;DHT22;2482;49.154;8.254;2023-08-24T01:55:27;19.50;99.90
4934;DHT22;2482;49.154;8.254;2023-08-24T01:57:56;19.50;99.90
4934;DHT22;2482;49.154;8.254;2023-08-24T02:00:23;19.70;99.90
4934;DHT22;2482;49.154;8.254;2023-08-24T02:02:50;19.90;99.90
4934;DHT22;2482;49.154;8.254;2023-08-24T02:05:18;19.80;99.90
4934;DHT22;2482;49.154;8.254;2023-08-24T02:07:45;19.70;99.90
4934;DHT22;2482;49.154;8.254;2023-08-24T02:10:12;19.60;99.90
4934;DHT22;2482;49.154;8.254;2023-08-24T02:12:39;19.60;99.90
4934;DHT22;2482;49.154;8.254;2023-08-24T02:15:06;19.40;99.90
4934;DHT22;2482;49.154;8.254;2023-08-24T02:17:33;19.60;99.90
4934;DHT22;2482;49.154;8.254;2023-08-24T02:20:01;19.50;99.90
4934;DHT22;2482;49.154;8.254;2023-08-24T02:22:29;19.40;99.90
4934;DHT22;2482;49.154;8.254;2023-08-24T02:24:57;19.40;99.90
4934;DHT22;2482;49.154;8.254;2023-08-24T02:27:24;19.20;99.90
4934;DHT22;2482;49.154;8.254;2023-08-24T02:29:51;19.20;99.90
4934;DHT22;2482;49.154;8.254;2023-08-24T02:32:18;19.10;99.90
4934;DHT22;2482;49.154;8.254;2023-08-24T02:34:45;19.10;99.90
4934;DHT22;2482;49.154;8.254;2023-08-24T02:37:12;19.10;99.90
4934;DHT22;2482;49.154;8.254;2023-08-24T02:39:39;19.00;99.90
4934;DHT22;2482;49.154;8.254;2023-08-24T02:42:06;19.10;99.90
4934;DHT22;2482;49.154;8.254;2023-08-24T02:44:33;19.00;99.90
4934;DHT22;2482;49.154;8.254;2023-08-24T02:47:00;19.00;99.90
4934;DHT22;2482;49.154;8.254;2023-08-24T02:49:27;19.00;99.90
4934;DHT22;2482;49.154;8.254;2023-08-24T02:51:54;19.10;99.90
4934;DHT22;2482;49.154;8.254;2023-08-24T02:54:21;19.10;99.90
4934;DHT22;2482;49.154;8.254;2023-08-24T02:56:48;19.30;99.90
4934;DHT22;2482;49.154;8.254;2023-08-24T02:59:15;19.10;99.90
4934;DHT22;2482;49.154;8.254;2023-08-24T03:01:42;19.20;99.90
4934;DHT22;2482;49.154;8.254;2023-08-24T03:04:09;19.20;99.90
4934;DHT22;2482;49.154;8.254;2023-08-24T03:06:36;19.20;99.90
4934;DHT22;2482;49.154;8.254;2023-08-24T03:09:03;19.00;99.90
4934;DHT22;2482;49.154;8.254;2023-08-24T03:11:32;19.00;99.90
4934;DHT22;2482;49.154;8.254;2023-08-24T03:13:59;19.10;99.90
4934;DHT22;2482;49.154;8.254;2023-08-24T03:16:27;19.10;99.90
4934;DHT22;2482;49.154;8.254;2023-08-24T03:18:54;19.10;99.90
4934;DHT22;2482;49.154;8.254;2023-08-24T03:21:21;19.10;99.90
4934;DHT22;2482;49.154;8.254;2023-08-24T03:23:48;19.40;99.90
4934;DHT22;2482;49.154;8.254;2023-08-24T03:26:15;19.40;99.90
4934;DHT22;2482;49.154;8.254;2023-08-24T03:28:43;19.70;99.90
4934;DHT22;2482;49.154;8.254;2023-08-24T03:31:10;19.90;99.90
4934;DHT22;2482;49.154;8.254;2023-08-24T03:33:38;20.00;99.90
4934;DHT22;2482;49.154;8.254;2023-08-24T03:36:05;20.10;99.90
4934;DHT22;2482;49.154;8.254;2023-08-24T03:38:32;19.60;99.90
4934;DHT22;2482;49.154;8.254;2023-08-24T03:41:03;19.50;99.90
4934;DHT22;2482;49.154;8.254;2023-08-24T03:43:34;19.50;99.90
4934;DHT22;2482;49.154;8.254;2023-08-24T03:46:02;19.50;99.90
4934;DHT22;2482;49.154;8.254;2023-08-24T03:48:31;19.40;99.90
4934;DHT22;2482;49.154;8.254;2023-08-24T03:50:59;19.60;99.90
4934;DHT22;2482;49.154;8.254;2023-08-24T03:53:26;19.50;99.90
4934;DHT22;2482;49.154;8.254;2023-08-24T03:55:54;19.50;99.90
4934;DHT22;2482;49.154;8.254;2023-08-24T03:58:21;19.30;99.90
4934;DHT22;2482;49.154;8.254;2023-08-24T04:00:48;19.50;99.90
4934;DHT22;2482;49.154;8.254;2023-08-24T04:03:15;19.70;99.90
4934;DHT22;2482;49.154;8.254;2023-08-24T04:05:42;19.80;99.90
4934;DHT22;2482;49.154;8.254;2023-08-24T04:08:09;19.90;99.90
4934;DHT22;2482;49.154;8.254;2023-08-24T04:10:37;19.80;99.90
4934;DHT22;2482;49.154;8.254;2023-08-24T04:13:04;19.70;99.90
4934;DHT22;2482;49.154;8.254;2023-08-24T04:15:32;19.70;99.90
4934;DHT22;2482;49.154;8.254;2023-08-24T04:17:59;19.60;99.90
4934;DHT22;2482;49.154;8.254;2023-08-24T04:20:26;19.60;99.90
4934;DHT22;2482;49.154;8.254;2023-08-24T04:22:54;19.60;99.90
4934;DHT22;2482;49.154;8.254;2023-08-24T04:25:23;19.50;99.90
4934;DHT22;2482;49.154;8.254;2023-08-24T04:27:50;19.60;99.90
4934;DHT22;2482;49.154;8.254;2023-08-24T04:30:17;19.60;99.90
4934;DHT22;2482;49.154;8.254;2023-08-24T04:32:44;19.80;99.90
4934;DHT22;2482;49.154;8.254;2023-08-24T04:35:11;19.80;99.90
4934;DHT22;2482;49.154;8.254;2023-08-24T04:37:38;19.90;99.90
4934;DHT22;2482;49.154;8.254;2023-08-24T04:40:06;19.70;99.90
4934;DHT22;2482;49.154;8.254;2023-08-24T04:42:37;19.80;99.90
4934;DHT22;2482;49.154;8.254;2023-08-24T04:45:05;19.70;99.90
4934;DHT22;2482;49.154;8.254;2023-08-24T04:47:32;19.50;99.90
4934;DHT22;2482;49.154;8.254;2023-08-24T04:49:59;19.50;99.90
4934;DHT22;2482;49.154;8.254;2023-08-24T04:52:26;19.60;99.90
4934;DHT22;2482;49.154;8.254;2023-08-24T04:54:53;19.40;99.90
4934;DHT22;2482;49.154;8.254;2023-08-24T04:57:20;19.30;99.90
4934;DHT22;2482;49.154;8.254;2023-08-24T04:59:49;19.10;99.90
4934;DHT22;2482;49.154;8.254;2023-08-24T05:02:16;19.20;99.90
4934;DHT22;2482;49.154;8.254;2023-08-24T05:04:43;19.20;99.90
4934;DHT22;2482;49.154;8.254;2023-08-24T05:07:10;19.20;99.90
4934;DHT22;2482;49.154;8.254;2023-08-24T05:09:37;19.30;99.90
4934;DHT22;2482;49.154;8.254;2023-08-24T05:12:04;19.30;99.90
4934;DHT22;2482;49.154;8.254;2023-08-24T05:14:32;19.40;99.90
4934;DHT22;2482;49.154;8.254;2023-08-24T05:16:59;19.50;99.90
4934;DHT22;2482;49.154;8.254;2023-08-24T05:19:26;19.50;99.90
4934;DHT22;2482;49.154;8.254;2023-08-24T05:21:55;19.60;99.90
4934;DHT22;2482;49.154;8.254;2023-08-24T05:24:22;19.70;99.90
4934;DHT22;2482;49.154;8.254;2023-08-24T05:26:49;19.80;99.90
4934;DHT22;2482;49.154;8.254;2023-08-24T05:29:16;19.90;99.90
4934;DHT22;2482;49.154;8.254;2023-08-24T05:31:43;19.90;99.90
4934;DHT22;2482;49.154;8.254;2023-08-24T05:34:10;19.80;99.90
4934;DHT22;2482;49.154;8.254;2023-08-24T05:36:37;19.90;99.90
4934;DHT22;2482;49.154;8.254;2023-08-24T05:39:04;19.80;99.90
4934;DHT22;2482;49.154;8.254;2023-08-24T05:41:33;19.60;99.90
4934;DHT22;2482;49.154;8.254;2023-08-24T05:44:00;19.60;99.90
4934;DHT22;2482;49.154;8.254;2023-08-24T05:46:28;19.60;99.90
4934;DHT22;2482;49.154;8.254;2023-08-24T05:48:57;19.70;99.90
4934;DHT22;2482;49.154;8.254;2023-08-24T05:51:25;19.80;99.90
4934;DHT22;2482;49.154;8.254;2023-08-24T05:53:52;19.90;99.90
4934;DHT22;2482;49.154;8.254;2023-08-24T05:56:22;20.00;99.90
4934;DHT22;2482;49.154;8.254;2023-08-24T05:58:49;20.00;99.90
4934;DHT22;2482;49.154;8.254;2023-08-24T06:01:16;20.00;99.90
4934;DHT22;2482;49.154;8.254;2023-08-24T06:03:44;20.10;99.90
4934;DHT22;2482;49.154;8.254;2023-08-24T06:06:11;20.10;99.90
4934;DHT22;2482;49.154;8.254;2023-08-24T06:08:38;20.20;99.90
4934;DHT22;2482;49.154;8.254;2023-08-24T06:11:05;20.30;99.90
4934;DHT22;2482;49.154;8.254;2023-08-24T06:13:33;20.50;99.90
4934;DHT22;2482;49.154;8.254;2023-08-24T06:16:00;20.50;99.90
4934;DHT22;2482;49.154;8.254;2023-08-24T06:18:28;20.60;99.90
4934;DHT22;2482;49.154;8.254;2023-08-24T06:20:55;20.70;99.90
4934;DHT22;2482;49.154;8.254;2023-08-24T06:23:22;20.90;99.90
4934;DHT22;2482;49.154;8.254;2023-08-24T06:25:49;21.00;99.90
4934;DHT22;2482;49.154;8.254;2023-08-24T06:28:16;21.00;99.90
4934;DHT22;2482;49.154;8.254;2023-08-24T06:30:43;21.10;99.90
4934;DHT22;2482;49.154;8.254;2023-08-24T06:33:11;21.10;99.90
4934;DHT22;2482;49.154;8.254;2023-08-24T06:35:41;21.10;99.90
4934;DHT22;2482;49.154;8.254;2023-08-24T06:38:08;21.20;99.90
4934;DHT22;2482;49.154;8.254;2023-08-24T06:40:35;21.30;99.90
4934;DHT22;2482;49.154;8.254;2023-08-24T06:43:02;21.20;99.90
4934;DHT22;2482;49.154;8.254;2023-08-24T06:45:31;21.10;99.90
4934;DHT22;2482;49.154;8.254;2023-08-24T06:47:58;21.10;99.90
4934;DHT22;2482;49.154;8.254;2023-08-24T06:50:25;21.20;99.90
4934;DHT22;2482;49.154;8.254;2023-08-24T06:52:52;21.30;99.90
4934;DHT22;2482;49.154;8.254;2023-08-24T06:55:19;21.40;99.90
4934;DHT22;2482;49.154;8.254;2023-08-24T06:57:48;21.80;99.90
4934;DHT22;2482;49.154;8.254;2023-08-24T07:00:19;22.20;99.90
4934;DHT22;2482;49.154;8.254;2023-08-24T07:02:50;22.30;99.90
4934;DHT22;2482;49.154;8.254;2023-08-24T07:05:18;22.40;99.90
4934;DHT22;2482;49.154;8.254;2023-08-24T07:07:46;22.60;99.90
4934;DHT22;2482;49.154;8.254;2023-08-24T07:10:14;22.60;99.90
4934;DHT22;2482;49.154;8.254;2023-08-24T07:12:41;22.80;99.90
4934;DHT22;2482;49.154;8.254;2023-08-24T07:15:08;22.90;99.90
4934;DHT22;2482;49.154;8.254;2023-08-24T07:17:36;22.80;99.90
4934;DHT22;2482;49.154;8.254;2023-08-24T07:20:04;23.00;99.90
4934;DHT22;2482;49.154;8.254;2023-08-24T07:22:32;23.30;99.90
4934;DHT22;2482;49.154;8.254;2023-08-24T07:25:00;23.40;99.90
4934;DHT22;2482;49.154;8.254;2023-08-24T07:27:32;23.60;99.90
4934;DHT22;2482;49.154;8.254;2023-08-24T07:30:01;23.80;99.90
4934;DHT22;2482;49.154;8.254;2023-08-24T07:32:52;23.80;99.90
4934;DHT22;2482;49.154;8.254;2023-08-24T07:35:22;23.70;99.90
4934;DHT22;2482;49.154;8.254;2023-08-24T07:37:51;23.60;99.90
4934;DHT22;2482;49.154;8.254;2023-08-24T07:40:18;23.60;99.90
4934;DHT22;2482;49.154;8.254;2023-08-24T07:42:50;23.40;99.90
4934;DHT22;2482;49.154;8.254;2023-08-24T07:45:20;23.50;99.90
4934;DHT22;2482;49.154;8.254;2023-08-24T07:47:48;23.50;99.90
4934;DHT22;2482;49.154;8.254;2023-08-24T07:50:15;23.40;99.90
4934;DHT22;2482;49.154;8.254;2023-08-24T07:52:43;23.30;99.90
4934;DHT22;2482;49.154;8.254;2023-08-24T07:55:10;23.30;99.90
4934;DHT22;2482;49.154;8.254;2023-08-24T07:57:37;23.50;99.90
4934;DHT22;2482;49.154;8.254;2023-08-24T08:00:05;23.40;99.90
4934;DHT22;2482;49.154;8.254;2023-08-24T08:02:36;23.60;99.90
4934;DHT22;2482;49.154;8.254;2023-08-24T08:05:05;23.60;99.90
4934;DHT22;2482;49.154;8.254;2023-08-24T08:07:37;23.50;99.90
4934;DHT22;2482;49.154;8.254;2023-08-24T08:10:05;23.80;99.90
4934;DHT22;2482;49.154;8.254;2023-08-24T08:12:34;23.80;99.90
4934;DHT22;2482;49.154;8.254;2023-08-24T08:15:01;23.90;99.90
4934;DHT22;2482;49.154;8.254;2023-08-24T08:17:28;24.00;99.90
4934;DHT22;2482;49.154;8.254;2023-08-24T08:19:57;24.20;99.90
4934;DHT22;2482;49.154;8.254;2023-08-24T08:22:24;24.30;99.90
4934;DHT22;2482;49.154;8.254;2023-08-24T08:24:52;24.50;99.90
4934;DHT22;2482;49.154;8.254;2023-08-24T08:27:23;24.70;99.90
4934;DHT22;2482;49.154;8.254;2023-08-24T08:29:50;24.60;99.90
4934;DHT22;2482;49.154;8.254;2023-08-24T08:32:17;24.80;99.90
4934;DHT22;2482;49.154;8.254;2023-08-24T08:34:44;24.90;99.90
4934;DHT22;2482;49.154;8.254;2023-08-24T08:37:11;25.10;99.90
4934;DHT22;2482;49.154;8.254;2023-08-24T08:39:38;25.20;99.90
4934;DHT22;2482;49.154;8.254;2023-08-24T08:42:11;25.50;99.90
4934;DHT22;2482;49.154;8.254;2023-08-24T08:44:41;25.70;99.90
4934;DHT22;2482;49.154;8.254;2023-08-24T08:47:11;25.80;99.90
4934;DHT22;2482;49.154;8.254;2023-08-24T08:49:39;26.00;99.90
4934;DHT22;2482;49.154;8.254;2023-08-24T08:52:06;26.40;99.90
4934;DHT22;2482;49.154;8.254;2023-08-24T08:54:33;26.40;99.90
4934;DHT22;2482;49.154;8.254;2023-08-24T08:57:01;26.20;99.90
4934;DHT22;2482;49.154;8.254;2023-08-24T08:59:29;26.20;99.90
4934;DHT22;2482;49.154;8.254;2023-08-24T09:01:57;26.40;99.90
4934;DHT22;2482;49.154;8.254;2023-08-24T09:04:25;26.70;99.90
4934;DHT22;2482;49.154;8.254;2023-08-24T09:06:52;27.00;99.90
4934;DHT22;2482;49.154;8.254;2023-08-24T09:09:20;27.00;99.90
4934;DHT22;2482;49.154;8.254;2023-08-24T09:11:47;27.00;99.90
4934;DHT22;2482;49.154;8.254;2023-08-24T09:14:15;27.00;99.90
4934;DHT22;2482;49.154;8.254;2023-08-24T09:16:42;27.20;99.90
4934;DHT22;2482;49.154;8.254;2023-08-24T09:19:11;27.40;99.90
4934;DHT22;2482;49.154;8.254;2023-08-24T09:21:39;27.40;99.90
4934;DHT22;2482;49.154;8.254;2023-08-24T09:24:08;27.30;99.90
4934;DHT22;2482;49.154;8.254;2023-08-24T09:26:37;27.50;99.90
4934;DHT22;2482;49.154;8.254;2023-08-24T09:29:14;27.70;99.90
4934;DHT22;2482;49.154;8.254;2023-08-24T09:31:42;28.00;99.90
4934;DHT22;2482;49.154;8.254;2023-08-24T09:34:13;28.20;99.90
4934;DHT22;2482;49.154;8.254;2023-08-24T09:36:40;28.40;99.90
4934;DHT22;2482;49.154;8.254;2023-08-24T09:39:07;28.20;99.90
4934;DHT22;2482;49.154;8.254;2023-08-24T09:44:09;28.30;99.90
4934;DHT22;2482;49.154;8.254;2023-08-24T09:46:39;28.10;99.90
4934;DHT22;2482;49.154;8.254;2023-08-24T09:49:09;28.20;99.90
4934;DHT22;2482;49.154;8.254;2023-08-24T09:51:37;28.30;99.90
4934;DHT22;2482;49.154;8.254;2023-08-24T09:54:08;28.60;99.90
4934;DHT22;2482;49.154;8.254;2023-08-24T09:56:38;28.70;99.90
4934;DHT22;2482;49.154;8.254;2023-08-24T09:59:16;29.20;99.90
4934;DHT22;2482;49.154;8.254;2023-08-24T10:01:46;29.30;99.90
4934;DHT22;2482;49.154;8.254;2023-08-24T10:04:21;29.30;99.90
4934;DHT22;2482;49.154;8.254;2023-08-24T10:06:52;29.20;99.90
4934;DHT22;2482;49.154;8.254;2023-08-24T10:09:27;29.30;99.90
4934;DHT22;2482;49.154;8.254;2023-08-24T10:12:07;29.50;99.90
4934;DHT22;2482;49.154;8.254;2023-08-24T10:14:47;29.40;99.90
4934;DHT22;2482;49.154;8.254;2023-08-24T10:17:22;29.60;99.90
4934;DHT22;2482;49.154;8.254;2023-08-24T10:19:52;29.40;99.90
4934;DHT22;2482;49.154;8.254;2023-08-24T10:22:20;29.70;99.90
4934;DHT22;2482;49.154;8.254;2023-08-24T10:24:47;29.70;99.90
4934;DHT22;2482;49.154;8.254;2023-08-24T10:27:16;30.10;99.90
4934;DHT22;2482;49.154;8.254;2023-08-24T10:29:43;30.00;99.90
4934;DHT22;2482;49.154;8.254;2023-08-24T10:32:10;30.00;99.90
4934;DHT22;2482;49.154;8.254;2023-08-24T10:34:38;30.50;99.90
4934;DHT22;2482;49.154;8.254;2023-08-24T10:37:09;30.70;99.90
4934;DHT22;2482;49.154;8.254;2023-08-24T10:39:43;30.60;99.90
4934;DHT22;2482;49.154;8.254;2023-08-24T10:42:13;30.70;99.90
4934;DHT22;2482;49.154;8.254;2023-08-24T10:44:44;30.70;99.90
4934;DHT22;2482;49.154;8.254;2023-08-24T10:47:21;31.10;99.90
4934;DHT22;2482;49.154;8.254;2023-08-24T10:52:36;31.40;99.90
4934;DHT22;2482;49.154;8.254;2023-08-24T10:55:23;31.30;99.90
4934;DHT22;2482;49.154;8.254;2023-08-24T10:57:59;31.60;99.90
4934;DHT22;2482;49.154;8.254;2023-08-24T11:00:28;31.90;99.90
4934;DHT22;2482;49.154;8.254;2023-08-24T11:02:57;31.90;99.90
4934;DHT22;2482;49.154;8.254;2023-08-24T11:05:31;31.60;99.90
4934;DHT22;2482;49.154;8.254;2023-08-24T11:08:02;31.60;99.90
4934;DHT22;2482;49.154;8.254;2023-08-24T11:10:45;31.30;99.90
4934;DHT22;2482;49.154;8.254;2023-08-24T11:13:17;31.70;99.90
4934;DHT22;2482;49.154;8.254;2023-08-24T11:15:50;32.10;99.90
4934;DHT22;2482;49.154;8.254;2023-08-24T11:18:28;32.50;99.90
4934;DHT22;2482;49.154;8.254;2023-08-24T11:21:00;32.50;99.90
4934;DHT22;2482;49.154;8.254;2023-08-24T11:23:31;32.60;99.90
4934;DHT22;2482;49.154;8.254;2023-08-24T11:26:00;32.90;99.90
4934;DHT22;2482;49.154;8.254;2023-08-24T11:28:29;32.70;99.90
4934;DHT22;2482;49.154;8.254;2023-08-24T11:30:58;32.80;99.90
4934;DHT22;2482;49.154;8.254;2023-08-24T11:33:35;33.10;99.90
4934;DHT22;2482;49.154;8.254;2023-08-24T11:36:04;33.10;99.90
4934;DHT22;2482;49.154;8.254;2023-08-24T11:38:41;32.90;99.90
4934;DHT22;2482;49.154;8.254;2023-08-24T11:41:17;33.50;99.90
4934;DHT22;2482;49.154;8.254;2023-08-24T11:43:45;33.50;99.90
4934;DHT22;2482;49.154;8.254;2023-08-24T11:46:18;33.50;99.90
4934;DHT22;2482;49.154;8.254;2023-08-24T11:48:46;34.00;99.90
4934;DHT22;2482;49.154;8.254;2023-08-24T11:51:13;34.00;99.90
4934;DHT22;2482;49.154;8.254;2023-08-24T11:53:45;34.10;99.90
4934;DHT22;2482;49.154;8.254;2023-08-24T11:56:14;33.90;99.90
4934;DHT22;2482;49.154;8.254;2023-08-24T11:58:48;33.20;99.90
4934;DHT22;2482;49.154;8.254;2023-08-24T12:01:17;33.10;99.90
4934;DHT22;2482;49.154;8.254;2023-08-24T12:03:45;32.80;99.90
4934;DHT22;2482;49.154;8.254;2023-08-24T12:06:16;32.50;99.90
4934;DHT22;2482;49.154;8.254;2023-08-24T12:08:48;32.40;99.90
4934;DHT22;2482;49.154;8.254;2023-08-24T12:11:20;32.50;99.90
4934;DHT22;2482;49.154;8.254;2023-08-24T12:13:53;32.50;99.90
4934;DHT22;2482;49.154;8.254;2023-08-24T12:16:22;32.70;99.90
4934;DHT22;2482;49.154;8.254;2023-08-24T12:18:56;32.90;99.90
4934;DHT22;2482;49.154;8.254;2023-08-24T12:21:26;32.90;99.90
4934;DHT22;2482;49.154;8.254;2023-08-24T12:24:03;33.00;99.90
4934;DHT22;2482;49.154;8.254;2023-08-24T12:26:36;32.70;99.90
4934;DHT22;2482;49.154;8.254;2023-08-24T12:29:05;32.50;99.90
4934;DHT22;2482;49.154;8.254;2023-08-24T12:31:36;33.00;99.90
4934;DHT22;2482;49.154;8.254;2023-08-24T12:34:05;33.30;99.90
4934;DHT22;2482;49.154;8.254;2023-08-24T12:36:33;33.30;99.90
4934;DHT22;2482;49.154;8.254;2023-08-24T12:39:04;33.10;99.90
4934;DHT22;2482;49.154;8.254;2023-08-24T12:41:32;32.80;99.90
4934;DHT22;2482;49.154;8.254;2023-08-24T12:44:00;33.00;99.90
4934;DHT22;2482;49.154;8.254;2023-08-24T12:46:32;33.10;99.90
4934;DHT22;2482;49.154;8.254;2023-08-24T12:49:03;33.20;99.90
4934;DHT22;2482;49.154;8.254;2023-08-24T12:51:30;33.40;99.90
4934;DHT22;2482;49.154;8.254;2023-08-24T12:53:57;33.50;99.90
4934;DHT22;2482;49.154;8.254;2023-08-24T12:56:24;33.80;99.90
4934;DHT22;2482;49.154;8.254;2023-08-24T12:58:51;33.60;99.90
4934;DHT22;2482;49.154;8.254;2023-08-24T13:01:18;33.60;99.90
4934;DHT22;2482;49.154;8.254;2023-08-24T13:03:45;33.50;99.90
4934;DHT22;2482;49.154;8.254;2023-08-24T13:06:12;33.40;99.90
4934;DHT22;2482;49.154;8.254;2023-08-24T13:08:47;33.60;99.90
4934;DHT22;2482;49.154;8.254;2023-08-24T13:11:14;33.20;99.90
4934;DHT22;2482;49.154;8.254;2023-08-24T13:13:41;32.40;99.90
4934;DHT22;2482;49.154;8.254;2023-08-24T13:16:08;32.40;99.90
4934;DHT22;2482;49.154;8.254;2023-08-24T13:18:35;32.50;99.90
4934;DHT22;2482;49.154;8.254;2023-08-24T13:21:02;32.60;99.90
4934;DHT22;2482;49.154;8.254;2023-08-24T13:23:29;32.20;99.90
4934;DHT22;2482;49.154;8.254;2023-08-24T13:25:59;32.10;99.90
4934;DHT22;2482;49.154;8.254;2023-08-24T13:28:26;32.00;99.90
4934;DHT22;2482;49.154;8.254;2023-08-24T13:30:54;32.10;99.90
4934;DHT22;2482;49.154;8.254;2023-08-24T13:33:21;31.90;99.90
4934;DHT22;2482;49.154;8.254;2023-08-24T13:35:48;32.00;99.90
4934;DHT22;2482;49.154;8.254;2023-08-24T13:38:15;31.80;99.90
4934;DHT22;2482;49.154;8.254;2023-08-24T13:40:42;31.80;99.90
4934;DHT22;2482;49.154;8.254;2023-08-24T13:43:11;31.60;99.90
4934;DHT22;2482;49.154;8.254;2023-08-24T13:45:38;31.50;99.90
4934;DHT22;2482;49.154;8.254;2023-08-24T13:48:05;31.40;99.90
4934;DHT22;2482;49.154;8.254;2023-08-24T13:50:33;31.40;99.90
4934;DHT22;2482;49.154;8.254;2023-08-24T13:53:00;31.20;99.90
4934;DHT22;2482;49.154;8.254;2023-08-24T13:55:27;31.30;99.90
4934;DHT22;2482;49.154;8.254;2023-08-24T13:57:55;31.20;99.90
4934;DHT22;2482;49.154;8.254;2023-08-24T14:00:22;31.20;99.90
4934;DHT22;2482;49.154;8.254;2023-08-24T14:02:50;31.10;99.90
4934;DHT22;2482;49.154;8.254;2023-08-24T14:05:17;31.00;99.90
4934;DHT22;2482;49.154;8.254;2023-08-24T14:07:44;31.20;99.90
4934;DHT22;2482;49.154;8.254;2023-08-24T14:10:11;31.20;99.90
4934;DHT22;2482;49.154;8.254;2023-08-24T14:12:38;30.80;99.90
4934;DHT22;2482;49.154;8.254;2023-08-24T14:15:06;30.20;99.90
4934;DHT22;2482;49.154;8.254;2023-08-24T14:17:33;29.00;99.90
4934;DHT22;2482;49.154;8.254;2023-08-24T14:20:00;27.90;99.90
4934;DHT22;2482;49.154;8.254;2023-08-24T14:22:27;27.20;99.90
4934;DHT22;2482;49.154;8.254;2023-08-24T14:24:54;26.40;99.90
4934;DHT22;2482;49.154;8.254;2023-08-24T14:27:21;25.60;99.90
4934;DHT22;2482;49.154;8.254;2023-08-24T14:29:48;25.10;99.90
4934;DHT22;2482;49.154;8.254;2023-08-24T14:32:15;24.70;99.90
4934;DHT22;2482;49.154;8.254;2023-08-24T14:34:42;24.50;99.90
4934;DHT22;2482;49.154;8.254;2023-08-24T14:37:10;24.60;99.90
4934;DHT22;2482;49.154;8.254;2023-08-24T14:39:37;24.60;99.90
4934;DHT22;2482;49.154;8.254;2023-08-24T14:42:04;24.70;99.90
4934;DHT22;2482;49.154;8.254;2023-08-24T14:44:31;24.70;99.90
4934;DHT22;2482;49.154;8.254;2023-08-24T14:46:58;24.80;99.90
4934;DHT22;2482;49.154;8.254;2023-08-24T14:49:25;24.90;99.90
4934;DHT22;2482;49.154;8.254;2023-08-24T14:51:52;25.30;99.90
4934;DHT22;2482;49.154;8.254;2023-08-24T14:54:19;25.80;99.90
4934;DHT22;2482;49.154;8.254;2023-08-24T14:56:46;25.90;99.90
4934;DHT22;2482;49.154;8.254;2023-08-24T14:59:14;26.00;99.90
4934;DHT22;2482;49.154;8.254;2023-08-24T15:01:41;26.10;99.90
4934;DHT22;2482;49.154;8.254;2023-08-24T15:04:08;26.10;99.90
4934;DHT22;2482;49.154;8.254;2023-08-24T15:06:38;26.10;99.90
4934;DHT22;2482;49.154;8.254;2023-08-24T15:09:05;26.10;99.90
4934;DHT22;2482;49.154;8.254;2023-08-24T15:11:33;26.10;99.90
4934;DHT22;2482;49.154;8.254;2023-08-24T15:14:00;26.20;99.90
4934;DHT22;2482;49.154;8.254;2023-08-24T15:16:27;26.30;99.90
4934;DHT22;2482;49.154;8.254;2023-08-24T15:18:54;26.50;99.90
4934;DHT22;2482;49.154;8.254;2023-08-24T15:21:21;26.90;99.90
4934;DHT22;2482;49.154;8.254;2023-08-24T15:23:48;27.30;99.90
4934;DHT22;2482;49.154;8.254;2023-08-24T15:26:15;27.70;99.90
4934;DHT22;2482;49.154;8.254;2023-08-24T15:29:14;27.90;99.90
4934;DHT22;2482;49.154;8.254;2023-08-24T15:31:42;28.20;99.90
4934;DHT22;2482;49.154;8.254;2023-08-24T15:34:10;28.10;99.90
4934;DHT22;2482;49.154;8.254;2023-08-24T15:36:37;28.10;99.90
4934;DHT22;2482;49.154;8.254;2023-08-24T15:39:05;28.30;99.90
4934;DHT22;2482;49.154;8.254;2023-08-24T15:41:32;28.40;99.90
4934;DHT22;2482;49.154;8.254;2023-08-24T15:44:00;28.30;99.90
4934;DHT22;2482;49.154;8.254;2023-08-24T15:46:27;28.40;99.90
4934;DHT22;2482;49.154;8.254;2023-08-24T15:48:54;28.20;99.90
4934;DHT22;2482;49.154;8.254;2023-08-24T15:51:23;27.90;99.90
4934;DHT22;2482;49.154;8.254;2023-08-24T15:53:50;27.80;99.90
4934;DHT22;2482;49.154;8.254;2023-08-24T15:56:17;27.50;99.90
4934;DHT22;2482;49.154;8.254;2023-08-24T15:58:45;27.80;99.90
4934;DHT22;2482;49.154;8.254;2023-08-24T16:01:12;27.70;99.90
4934;DHT22;2482;49.154;8.254;2023-08-24T16:03:40;27.60;99.90
4934;DHT22;2482;49.154;8.254;2023-08-24T16:06:09;27.80;99.90
4934;DHT22;2482;49.154;8.254;2023-08-24T16:08:36;27.40;99.90
4934;DHT22;2482;49.154;8.254;2023-08-24T16:11:03;27.60;99.90
4934;DHT22;2482;49.154;8.254;2023-08-24T16:13:30;27.70;99.90
4934;DHT22;2482;49.154;8.254;2023-08-24T16:15:57;27.90;99.90
4934;DHT22;2482;49.154;8.254;2023-08-24T16:18:27;27.90;99.90
4934;DHT22;2482;49.154;8.254;2023-08-24T16:20:54;27.70;99.90
4934;DHT22;2482;49.154;8.254;2023-08-24T16:23:21;27.60;99.90